Martins Ferry, Ohio
Current Conditions -  °F | °C
As of 6:53 AM on Sunday 23 Nov 2014 (Local Time) from KHLG Reporting Station
Broken Clouds Broken Clouds  
Wind Chill: 44°   Ceiling: 9500
Heat Index: 48°   Visibility: 10mi
Dew Point: 25°   Wind: 8mph
Humidity: 41%   Direction: 180°S
Pressure: 30.09"   Gusts: NA
Location:  40.1°N, 80.72°W
Report Text: KHLG 231153Z AUTO 18007KT 10SM BKN095 09/M04 A3009 RMK AO2 SLP195 60000 T00891039 10106 20089 53001
Loading
Personal Weather Stations






























Interactive Weather Map New forecast layout! Learn more

10-Day Weather Forecast

Advertisements
Track Severe Weather on mobile